Linxi, China
Current Conditions -  °F | °C
As of 11:00 PM on Friday 24 Oct 2014 (Local Time) from ZBAA Reporting Station
Light Fog Light Fog  
Wind Chill: 52°   Ceiling: Unl
Heat Index: 52°   Visibility: 1mi
Dew Point: 50°   Wind: 0mph
Humidity: 94%   Direction: NA
Pressure: 29.85"   Gusts: NA
Location:  43.6°N, 118.07°E
Report Text: ZBAA 241500Z 00000MPS 1600 R01/0600V1200D R36R/1600NR36L/1800UBR BCFG NSC 11/10 Q1011 BECMG TL1620 1400 BR
Loading
Personal Weather Stations






























Interactive Weather Map
Tropical Storm Tracking
New forecast layout! Learn more

10-Day Weather Forecast

Advertisements
Track Severe Weather on mobile